createdAt,value
2018-10-01T00:00:16.214Z,7.53
2018-10-01T00:02:44.301Z,7.57
2018-10-01T00:05:16.082Z,7.60
2018-10-01T00:07:44.175Z,7.80
2018-10-01T00:10:12.351Z,7.60
2018-10-01T00:12:40.454Z,7.80
2018-10-01T00:15:08.543Z,7.00
2018-10-01T00:17:36.671Z,8.30
2018-10-01T00:20:10.083Z,8.33
2018-10-01T00:22:43.470Z,8.40
2018-10-01T00:25:11.556Z,8.30
2018-10-01T00:27:39.625Z,9.77
2018-10-01T00:30:07.715Z,10.27
2018-10-01T00:32:36.170Z,10.13
2018-10-01T00:35:04.284Z,9.13
2018-10-01T00:37:32.371Z,8.30
2018-10-01T00:40:00.459Z,7.90
2018-10-01T00:42:28.612Z,7.23
2018-10-01T00:44:56.695Z,7.93
2018-10-01T00:47:24.769Z,7.30
2018-10-01T00:49:52.858Z,7.23
2018-10-01T00:52:20.929Z,7.00
2018-10-01T00:54:49.049Z,7.43
2018-10-01T00:57:17.126Z,7.80
2018-10-01T00:59:45.281Z,6.87
2018-10-01T01:02:13.359Z,7.00
2018-10-01T01:04:41.445Z,7.43
2018-10-01T01:07:09.822Z,6.67
2018-10-01T01:09:37.929Z,7.77
2018-10-01T01:12:06.035Z,6.90
2018-10-01T01:14:34.121Z,7.00
2018-10-01T01:17:02.186Z,6.43
2018-10-01T01:19:30.260Z,7.17
2018-10-01T01:21:58.398Z,6.57
2018-10-01T01:24:26.496Z,6.00
2018-10-01T01:26:54.593Z,6.20
2018-10-01T01:29:22.805Z,6.47
2018-10-01T01:31:51.091Z,6.63
2018-10-01T01:34:19.164Z,6.67
2018-10-01T01:36:47.246Z,6.87
2018-10-01T01:39:15.319Z,6.37
2018-10-01T01:41:43.451Z,6.90
2018-10-01T01:44:11.530Z,6.37
2018-10-01T01:46:39.695Z,6.73
2018-10-01T01:49:07.766Z,6.93
2018-10-01T01:51:35.852Z,6.67
2018-10-01T01:54:03.922Z,7.00
2018-10-01T01:56:32.230Z,6.97
2018-10-01T01:59:00.366Z,7.00
2018-10-01T02:01:28.462Z,7.00
2018-10-01T02:03:56.539Z,6.97
2018-10-01T02:06:24.625Z,7.13
2018-10-01T02:08:52.699Z,7.20
2018-10-01T02:11:20.874Z,7.27
2018-10-01T02:13:48.955Z,6.80
2018-10-01T02:16:17.052Z,6.77
2018-10-01T02:18:45.142Z,6.60
2018-10-01T02:21:13.221Z,6.40
2018-10-01T02:23:41.302Z,7.30
2018-10-01T02:26:09.376Z,6.77
2018-10-01T02:28:37.453Z,7.30
2018-10-01T02:31:05.528Z,6.80
2018-10-01T02:33:33.622Z,7.13
2018-10-01T02:36:01.707Z,6.70
2018-10-01T02:38:29.786Z,6.77
2018-10-01T02:40:57.855Z,6.87
2018-10-01T02:43:25.942Z,6.47
2018-10-01T02:45:54.025Z,21.60
2018-10-01T02:48:22.101Z,7.63
2018-10-01T02:50:50.169Z,6.80
2018-10-01T02:53:23.554Z,6.97
2018-10-01T02:55:51.626Z,6.90
2018-10-01T02:58:19.709Z,7.37
2018-10-01T03:00:47.800Z,7.50
2018-10-01T03:03:15.880Z,7.13
2018-10-01T03:05:43.975Z,7.13
2018-10-01T03:08:12.048Z,8.17
2018-10-01T03:10:40.123Z,7.47
2018-10-01T03:13:08.213Z,7.73
2018-10-01T03:15:36.332Z,10.20
2018-10-01T03:18:04.405Z,9.03
2018-10-01T03:20:32.489Z,8.50
2018-10-01T03:23:00.671Z,8.20
2018-10-01T03:25:28.801Z,8.17
2018-10-01T03:27:56.835Z,6.93
2018-10-01T03:30:25.005Z,7.03
2018-10-01T03:32:52.998Z,7.40
2018-10-01T03:35:21.082Z,7.57
2018-10-01T03:37:49.154Z,8.43
2018-10-01T03:40:17.300Z,8.97
2018-10-01T03:42:45.309Z,8.90
2018-10-01T03:45:13.389Z,8.43
2018-10-01T03:47:41.460Z,8.97
2018-10-01T03:50:09.805Z,7.90
2018-10-01T03:52:38.134Z,7.47
2018-10-01T03:55:06.248Z,6.80
2018-10-01T03:57:34.493Z,6.77
2018-10-01T04:00:02.580Z,7.10
2018-10-01T04:02:30.662Z,7.80
2018-10-01T04:04:58.791Z,10.03
2018-10-01T04:07:26.832Z,12.77
2018-10-01T04:09:54.915Z,9.00
2018-10-01T04:12:22.999Z,9.60
2018-10-01T04:14:51.105Z,9.97
2018-10-01T04:17:19.216Z,9.63
2018-10-01T04:19:47.306Z,8.23
2018-10-01T04:22:15.518Z,7.23
2018-10-01T04:24:43.730Z,6.97
2018-10-01T04:27:11.867Z,7.17
2018-10-01T04:29:39.966Z,13.13
2018-10-01T04:32:08.067Z,23.40
2018-10-01T04:34:36.177Z,30.33
2018-10-01T04:37:04.300Z,25.17
2018-10-01T04:39:32.354Z,22.57
2018-10-01T04:42:00.447Z,23.03
2018-10-01T04:44:28.572Z,21.73
2018-10-01T04:46:56.655Z,18.33
2018-10-01T04:49:24.727Z,16.67
2018-10-01T04:51:52.939Z,17.33
2018-10-01T04:54:20.985Z,17.37
2018-10-01T04:56:49.098Z,14.53
2018-10-01T04:59:17.188Z,14.00
2018-10-01T05:01:45.281Z,13.40
2018-10-01T05:04:13.355Z,11.60
2018-10-01T05:06:41.477Z,11.67
2018-10-01T05:09:10.273Z,10.83
2018-10-01T05:11:38.381Z,11.10
2018-10-01T05:14:06.814Z,10.00
2018-10-01T05:16:34.948Z,9.87
2018-10-01T05:19:03.030Z,8.57
2018-10-01T05:21:31.102Z,8.30
2018-10-01T05:23:59.275Z,8.80
2018-10-01T05:26:27.434Z,8.13
2018-10-01T05:28:55.518Z,7.63
2018-10-01T05:31:23.587Z,6.80
2018-10-01T05:33:51.675Z,6.87
2018-10-01T05:36:19.745Z,7.60
2018-10-01T05:38:47.826Z,7.70
2018-10-01T05:41:15.898Z,7.57
2018-10-01T05:43:43.981Z,7.23
2018-10-01T05:46:12.060Z,7.03
2018-10-01T05:48:40.158Z,6.87
2018-10-01T05:51:08.239Z,7.50
2018-10-01T05:53:36.329Z,6.90
2018-10-01T05:56:04.539Z,7.20
2018-10-01T05:58:32.623Z,8.53
2018-10-01T06:01:00.742Z,8.97
2018-10-01T06:03:28.831Z,8.00
2018-10-01T06:05:57.017Z,8.87
2018-10-01T06:08:25.136Z,7.90
2018-10-01T06:10:53.206Z,8.30
2018-10-01T06:13:21.286Z,9.03
2018-10-01T06:15:49.374Z,7.37
2018-10-01T06:18:17.510Z,7.93
2018-10-01T06:20:45.544Z,7.27
2018-10-01T06:23:13.767Z,6.90
2018-10-01T06:25:41.856Z,7.63
2018-10-01T06:28:10.115Z,7.67
2018-10-01T06:30:38.303Z,7.17
2018-10-01T06:33:06.378Z,7.50
2018-10-01T06:35:34.549Z,8.53
2018-10-01T06:38:02.724Z,7.97
2018-10-01T06:40:30.828Z,7.00
2018-10-01T06:42:58.898Z,7.67
2018-10-01T06:45:26.996Z,8.03
2018-10-01T06:47:55.071Z,7.50
2018-10-01T06:50:23.154Z,7.53
2018-10-01T06:52:51.314Z,7.07
2018-10-01T06:55:19.395Z,8.87
2018-10-01T06:57:47.468Z,9.93
2018-10-01T07:00:15.552Z,9.60
2018-10-01T07:02:43.617Z,9.80
2018-10-01T07:05:11.714Z,9.90
2018-10-01T07:07:39.829Z,9.33
2018-10-01T07:10:07.918Z,9.37
2018-10-01T07:12:35.987Z,9.47
2018-10-01T07:15:04.066Z,9.10
2018-10-01T07:17:32.190Z,9.80
2018-10-01T07:20:00.233Z,8.33
2018-10-01T07:22:28.384Z,8.90
2018-10-01T07:24:56.427Z,8.87
2018-10-01T07:27:24.479Z,9.40
2018-10-01T07:29:52.552Z,9.00
2018-10-01T07:32:20.638Z,8.17
2018-10-01T07:34:48.715Z,8.07
2018-10-01T07:37:16.794Z,8.63
2018-10-01T07:39:44.867Z,8.30
2018-10-01T07:42:12.953Z,8.50
2018-10-01T07:44:41.018Z,9.60
2018-10-01T07:47:09.105Z,8.33
2018-10-01T07:49:37.275Z,8.83
2018-10-01T07:52:05.522Z,8.93
2018-10-01T07:54:33.600Z,8.80
2018-10-01T07:57:01.724Z,9.23
2018-10-01T07:59:29.827Z,10.20
2018-10-01T08:01:57.926Z,10.07
2018-10-01T08:04:26.110Z,9.80
2018-10-01T08:06:54.361Z,11.03
2018-10-01T08:09:22.507Z,10.27
2018-10-01T08:11:50.524Z,10.20
2018-10-01T08:14:18.629Z,11.10
2018-10-01T08:16:46.702Z,9.80
2018-10-01T08:19:14.787Z,10.17
2018-10-01T08:21:42.983Z,10.47
2018-10-01T08:24:11.069Z,11.53
2018-10-01T08:26:39.213Z,10.93
2018-10-01T08:29:07.302Z,12.03
2018-10-01T08:31:35.309Z,10.57
2018-10-01T08:34:03.398Z,11.37
2018-10-01T08:36:31.480Z,11.70
2018-10-01T08:38:59.665Z,11.83
2018-10-01T08:41:27.713Z,10.97
2018-10-01T08:43:55.779Z,11.27
2018-10-01T08:46:23.840Z,11.03
2018-10-01T08:49:11.089Z,11.60
2018-10-01T08:51:58.827Z,11.73
2018-10-01T08:54:31.147Z,11.90
2018-10-01T08:56:59.265Z,11.80
2018-10-01T08:59:27.371Z,11.13
2018-10-01T09:01:55.456Z,10.60
2018-10-01T09:04:23.599Z,10.87
2018-10-01T09:06:51.741Z,10.57
2018-10-01T09:09:19.783Z,10.90
2018-10-01T09:11:47.866Z,10.90
2018-10-01T09:14:16.068Z,10.63
2018-10-01T09:16:44.066Z,10.43
2018-10-01T09:19:12.153Z,10.20
2018-10-01T09:21:40.411Z,9.90
2018-10-01T09:24:08.430Z,9.43
2018-10-01T09:26:36.570Z,8.80
2018-10-01T09:29:04.660Z,8.70
2018-10-01T09:31:32.763Z,9.47
2018-10-01T09:34:00.867Z,9.07
2018-10-01T09:36:28.944Z,9.37
2018-10-01T09:38:57.195Z,9.20
2018-10-01T09:41:25.317Z,9.60
2018-10-01T09:43:53.401Z,9.60
2018-10-01T09:46:21.513Z,9.87
2018-10-01T09:48:49.586Z,10.57
2018-10-01T09:51:17.666Z,9.27
2018-10-01T09:53:45.807Z,9.63
2018-10-01T09:56:13.968Z,9.40
2018-10-01T09:58:41.969Z,8.63
2018-10-01T10:01:12.483Z,9.27
2018-10-01T10:03:40.646Z,9.23
2018-10-01T10:06:09.143Z,9.27
2018-10-01T10:08:37.477Z,5.47
2018-10-01T10:11:05.574Z,7.77
2018-10-01T10:13:33.647Z,7.63
2018-10-01T10:16:01.749Z,7.73
2018-10-01T10:18:29.803Z,7.63
2018-10-01T10:20:57.919Z,7.77
2018-10-01T10:23:25.995Z,7.83
2018-10-01T10:25:54.202Z,6.87
2018-10-01T10:28:22.298Z,6.70
2018-10-01T10:30:50.354Z,7.23
2018-10-01T10:33:18.447Z,6.77
2018-10-01T10:35:46.514Z,5.60
2018-10-01T10:38:14.676Z,6.00
2018-10-01T10:40:42.710Z,4.60
2018-10-01T10:43:10.831Z,3.93
2018-10-01T10:45:38.917Z,4.17
2018-10-01T10:48:07.356Z,3.60
2018-10-01T10:50:35.626Z,3.70
2018-10-01T10:53:03.650Z,3.20
2018-10-01T10:55:31.743Z,3.33
2018-10-01T10:57:59.826Z,3.00
2018-10-01T11:00:27.901Z,2.83
2018-10-01T11:02:55.982Z,3.50
2018-10-01T11:05:24.068Z,1.77
2018-10-01T11:07:52.154Z,3.87
2018-10-01T11:10:20.226Z,3.20
2018-10-01T11:12:48.309Z,3.67
2018-10-01T11:15:16.614Z,3.67
2018-10-01T11:17:44.708Z,3.50
2018-10-01T11:20:12.838Z,3.53
2018-10-01T11:22:40.821Z,3.60
2018-10-01T11:25:08.954Z,3.77
2018-10-01T11:27:37.018Z,3.33
2018-10-01T11:30:05.560Z,3.80
2018-10-01T11:32:33.626Z,3.90
2018-10-01T11:35:01.841Z,3.47
2018-10-01T11:37:29.786Z,3.70
2018-10-01T11:39:57.893Z,3.50
2018-10-01T11:42:25.996Z,3.77
2018-10-01T11:44:54.155Z,3.50
2018-10-01T11:47:22.231Z,4.50
2018-10-01T11:49:50.317Z,3.87
2018-10-01T11:52:18.505Z,4.10
2018-10-01T11:54:46.794Z,4.50
2018-10-01T11:57:15.033Z,4.70
2018-10-01T11:59:42.965Z,4.27
2018-10-01T12:02:11.041Z,4.20
2018-10-01T12:04:39.139Z,4.27
2018-10-01T12:07:07.209Z,4.20
2018-10-01T12:09:35.366Z,4.57
2018-10-01T12:12:03.394Z,4.50
2018-10-01T12:14:31.457Z,4.30
2018-10-01T12:16:59.543Z,4.33
2018-10-01T12:19:27.614Z,4.33
2018-10-01T12:21:55.748Z,4.33
2018-10-01T12:24:23.782Z,4.33
2018-10-01T12:26:51.863Z,3.63
2018-10-01T12:29:19.975Z,4.53
2018-10-01T12:31:48.058Z,4.27
2018-10-01T12:34:16.140Z,3.80
2018-10-01T12:36:44.232Z,4.20
2018-10-01T12:39:12.364Z,4.10
2018-10-01T12:41:40.389Z,4.13
2018-10-01T12:44:08.458Z,4.27
2018-10-01T12:46:36.573Z,4.00
2018-10-01T12:49:04.645Z,4.43
2018-10-01T12:51:32.757Z,4.17
2018-10-01T12:54:00.876Z,3.40
2018-10-01T12:56:29.015Z,3.20
2018-10-01T12:58:57.058Z,3.50
2018-10-01T13:01:25.164Z,2.90
2018-10-01T13:03:53.234Z,3.10
2018-10-01T13:06:21.421Z,3.50
2018-10-01T13:08:49.424Z,3.07
2018-10-01T13:11:17.510Z,3.43
2018-10-01T13:13:45.668Z,3.10
2018-10-01T13:16:13.759Z,3.30
2018-10-01T13:18:41.932Z,3.50
2018-10-01T13:21:09.912Z,3.00
2018-10-01T13:23:37.998Z,2.80
2018-10-01T13:26:06.376Z,2.87
2018-10-01T13:28:34.669Z,3.40
2018-10-01T13:31:02.934Z,2.67
2018-10-01T13:33:31.013Z,2.97
2018-10-01T13:35:59.113Z,3.20
2018-10-01T13:38:27.407Z,3.10
2018-10-01T13:40:55.481Z,3.30
2018-10-01T13:43:23.565Z,3.27
2018-10-01T13:45:51.638Z,4.07
2018-10-01T13:48:19.780Z,4.00
2018-10-01T13:50:47.797Z,3.50
2018-10-01T13:53:15.877Z,3.50
2018-10-01T13:55:43.950Z,3.27
2018-10-01T13:58:12.067Z,3.53
2018-10-01T14:00:40.104Z,2.87
2018-10-01T14:03:08.196Z,2.73
2018-10-01T14:05:36.302Z,2.67
2018-10-01T14:08:04.369Z,2.50
2018-10-01T14:10:32.433Z,2.20
2018-10-01T14:13:00.551Z,2.47
2018-10-01T14:15:28.590Z,1.90
2018-10-01T14:17:56.662Z,1.87
2018-10-01T14:20:24.754Z,1.70
2018-10-01T14:22:53.042Z,2.07
2018-10-01T14:25:21.179Z,1.90
2018-10-01T14:27:49.189Z,2.80
2018-10-01T14:30:17.286Z,2.10
2018-10-01T14:32:45.457Z,2.30
2018-10-01T14:35:13.541Z,2.00
2018-10-01T14:37:41.622Z,1.57
2018-10-01T14:40:09.693Z,1.83
2018-10-01T14:42:37.827Z,1.60
2018-10-01T14:45:07.242Z,1.80
2018-10-01T14:47:35.308Z,1.70
2018-10-01T14:50:03.408Z,1.60
2018-10-01T14:52:31.477Z,1.33
2018-10-01T14:54:59.557Z,1.40
2018-10-01T14:57:27.649Z,1.43
2018-10-01T14:59:55.756Z,1.13
2018-10-01T15:02:23.809Z,1.20
2018-10-01T15:04:51.906Z,1.40
2018-10-01T15:07:19.972Z,1.40
2018-10-01T15:09:48.053Z,1.30
2018-10-01T15:12:16.209Z,1.60
2018-10-01T15:14:44.212Z,1.50
2018-10-01T15:17:12.344Z,1.43
2018-10-01T15:19:40.430Z,0.93
2018-10-01T15:22:08.514Z,0.90
2018-10-01T15:24:36.634Z,1.00
2018-10-01T15:27:04.671Z,0.90
2018-10-01T15:29:32.742Z,0.80
2018-10-01T15:32:00.993Z,0.90
2018-10-01T15:34:29.051Z,0.83
2018-10-01T15:36:57.227Z,1.10
2018-10-01T15:39:25.307Z,0.90
2018-10-01T15:41:53.554Z,1.50
2018-10-01T15:44:21.745Z,1.40
2018-10-01T15:46:49.904Z,1.30
2018-10-01T15:49:18.006Z,1.10
2018-10-01T15:51:46.250Z,1.10
2018-10-01T15:54:14.415Z,0.90
2018-10-01T15:56:42.501Z,1.00
2018-10-01T15:59:10.603Z,0.60
2018-10-01T16:01:38.721Z,0.60
2018-10-01T16:04:07.080Z,0.80
2018-10-01T16:06:35.180Z,0.80
2018-10-01T16:09:04.752Z,0.70
2018-10-01T16:11:33.120Z,0.67
2018-10-01T16:14:01.190Z,0.70
2018-10-01T16:16:29.453Z,0.70
2018-10-01T16:18:57.503Z,0.93
2018-10-01T16:21:25.787Z,0.90
2018-10-01T16:23:55.323Z,1.03
2018-10-01T16:26:23.860Z,0.90
2018-10-01T16:28:52.299Z,0.80
2018-10-01T16:31:20.383Z,0.50
2018-10-01T16:33:48.507Z,0.53
2018-10-01T16:36:16.554Z,0.63
2018-10-01T16:38:44.677Z,0.70
2018-10-01T16:41:12.792Z,0.80
2018-10-01T16:43:41.058Z,0.80
2018-10-01T16:46:09.134Z,0.60
2018-10-01T16:48:37.576Z,0.80
2018-10-01T16:51:05.989Z,0.70
2018-10-01T16:53:34.402Z,0.73
2018-10-01T16:56:02.674Z,0.83
2018-10-01T16:58:30.759Z,0.80
2018-10-01T17:00:58.864Z,1.03
2018-10-01T17:03:26.918Z,0.80
2018-10-01T17:05:57.828Z,0.80
2018-10-01T17:08:26.831Z,1.20
2018-10-01T17:10:55.010Z,1.07
2018-10-01T17:13:23.852Z,1.33
2018-10-01T17:15:52.264Z,1.20
2018-10-01T17:18:20.366Z,1.20
2018-10-01T17:20:48.441Z,1.17
2018-10-01T17:23:16.538Z,1.27
2018-10-01T17:25:44.613Z,2.70
2018-10-01T17:28:12.792Z,4.77
2018-10-01T17:30:41.018Z,2.00
2018-10-01T17:33:09.157Z,1.40
2018-10-01T17:35:37.320Z,2.10
2018-10-01T17:38:05.641Z,2.00
2018-10-01T17:40:33.845Z,1.50
2018-10-01T17:43:01.825Z,2.30
2018-10-01T17:45:29.901Z,1.50
2018-10-01T17:47:58.234Z,1.87
2018-10-01T17:50:26.395Z,2.90
2018-10-01T17:52:54.479Z,2.30
2018-10-01T17:55:22.770Z,3.53
2018-10-01T17:57:50.903Z,4.60
2018-10-01T18:00:19.044Z,4.93
2018-10-01T18:02:47.054Z,2.97
2018-10-01T18:05:15.222Z,5.27
2018-10-01T18:07:43.304Z,6.00
2018-10-01T18:10:11.385Z,5.33
2018-10-01T18:12:39.673Z,2.90
2018-10-01T18:15:09.092Z,2.20
2018-10-01T18:17:37.162Z,3.07
2018-10-01T18:20:05.265Z,2.20
2018-10-01T18:22:33.345Z,1.90
2018-10-01T18:25:01.418Z,1.60
2018-10-01T18:27:29.509Z,2.17
2018-10-01T18:29:57.686Z,2.27
2018-10-01T18:32:25.691Z,2.20
2018-10-01T18:34:53.806Z,1.50
2018-10-01T18:37:21.881Z,2.10
2018-10-01T18:39:50.061Z,2.10
2018-10-01T18:42:18.173Z,2.07
2018-10-01T18:44:46.216Z,1.87
2018-10-01T18:47:14.295Z,1.80
2018-10-01T18:49:42.375Z,1.90
2018-10-01T18:52:10.501Z,1.47
2018-10-01T18:54:38.670Z,1.30
2018-10-01T18:57:06.731Z,1.83
2018-10-01T18:59:34.961Z,1.73
2018-10-01T19:02:03.183Z,1.97
2018-10-01T19:04:31.274Z,4.60
2018-10-01T19:06:59.359Z,2.00
2018-10-01T19:09:27.433Z,3.00
2018-10-01T19:11:55.532Z,2.10
2018-10-01T19:14:23.586Z,1.87
2018-10-01T19:16:51.715Z,1.87
2018-10-01T19:19:19.873Z,2.50
2018-10-01T19:21:47.952Z,1.87
2018-10-01T19:24:16.213Z,2.20
2018-10-01T19:26:44.157Z,2.60
2018-10-01T19:29:12.225Z,2.20
2018-10-01T19:31:40.364Z,4.30
2018-10-01T19:34:08.384Z,2.53
2018-10-01T19:36:36.471Z,2.20
2018-10-01T19:39:06.985Z,2.80
2018-10-01T19:41:35.072Z,3.47
2018-10-01T19:44:03.461Z,2.63
2018-10-01T19:46:31.680Z,2.13
2018-10-01T19:48:59.931Z,2.10
2018-10-01T19:51:27.960Z,8.03
2018-10-01T19:53:56.104Z,3.47
2018-10-01T19:56:24.221Z,1.97
2018-10-01T19:58:52.368Z,2.17
2018-10-01T20:01:20.374Z,2.30
2018-10-01T20:03:48.471Z,3.73
2018-10-01T20:06:16.571Z,2.20
2018-10-01T20:08:44.757Z,2.00
2018-10-01T20:11:12.763Z,1.50
2018-10-01T20:13:40.840Z,1.70
2018-10-01T20:16:08.946Z,1.67
2018-10-01T20:18:37.220Z,1.93
2018-10-01T20:21:05.214Z,2.03
2018-10-01T20:23:33.336Z,2.20
2018-10-01T20:26:01.500Z,1.70
2018-10-01T20:28:29.725Z,2.03
2018-10-01T20:30:57.620Z,1.90
2018-10-01T20:33:25.793Z,2.00
2018-10-01T20:35:53.994Z,1.93
2018-10-01T20:38:22.135Z,2.00
2018-10-01T20:40:50.258Z,1.73
2018-10-01T20:43:18.305Z,1.60
2018-10-01T20:45:46.496Z,2.13
2018-10-01T20:48:14.624Z,1.60
2018-10-01T20:50:42.687Z,2.03
2018-10-01T20:53:10.860Z,1.30
2018-10-01T20:55:38.877Z,1.90
2018-10-01T20:58:06.949Z,1.80
2018-10-01T21:00:35.029Z,1.80
2018-10-01T21:03:03.114Z,1.53
2018-10-01T21:05:31.209Z,1.90
2018-10-01T21:07:59.286Z,1.87
2018-10-01T21:10:27.410Z,1.40
2018-10-01T21:12:55.508Z,1.90
2018-10-01T21:15:23.600Z,1.97
2018-10-01T21:17:51.713Z,1.70
2018-10-01T21:20:19.759Z,1.33
2018-10-01T21:22:47.854Z,1.57
2018-10-01T21:25:15.950Z,1.80
2018-10-01T21:27:44.033Z,1.70
2018-10-01T21:30:12.102Z,1.43
2018-10-01T21:32:40.265Z,2.30
2018-10-01T21:35:08.344Z,1.70
2018-10-01T21:37:36.424Z,1.60
2018-10-01T21:40:06.771Z,1.43
2018-10-01T21:42:34.857Z,1.70
2018-10-01T21:45:03.323Z,2.07
2018-10-01T21:47:31.920Z,1.60
2018-10-01T21:49:59.987Z,1.50
2018-10-01T21:52:28.678Z,1.80
2018-10-01T21:54:57.251Z,1.70
2018-10-01T21:57:25.348Z,1.70
2018-10-01T21:59:53.422Z,1.40
2018-10-01T22:02:21.808Z,1.70
2018-10-01T22:04:49.913Z,1.70
2018-10-01T22:07:18.442Z,1.43
2018-10-01T22:09:47.020Z,1.60
2018-10-01T22:12:15.107Z,1.50
2018-10-01T22:14:43.228Z,2.37
2018-10-01T22:17:11.653Z,1.77
2018-10-01T22:19:39.751Z,1.50
2018-10-01T22:22:08.111Z,1.50
2018-10-01T22:24:36.185Z,1.27
2018-10-01T22:27:04.281Z,1.70
2018-10-01T22:29:32.358Z,1.57
2018-10-01T22:32:00.547Z,1.43
2018-10-01T22:34:28.630Z,1.90
2018-10-01T22:36:56.715Z,2.00
2018-10-01T22:39:24.797Z,1.50
2018-10-01T22:41:52.989Z,1.80
2018-10-01T22:44:21.072Z,1.70
2018-10-01T22:46:49.141Z,1.87
2018-10-01T22:49:17.227Z,1.70
2018-10-01T22:51:45.303Z,2.03
2018-10-01T22:54:13.404Z,1.80
2018-10-01T22:56:41.582Z,2.10
2018-10-01T22:59:09.669Z,2.10
2018-10-01T23:01:37.737Z,2.20
2018-10-01T23:04:05.839Z,1.40
2018-10-01T23:06:33.941Z,1.50
2018-10-01T23:09:02.050Z,2.03
2018-10-01T23:11:30.133Z,2.00
2018-10-01T23:13:58.216Z,2.00
2018-10-01T23:16:26.289Z,2.17
2018-10-01T23:18:54.376Z,2.20
2018-10-01T23:21:22.464Z,2.57
2018-10-01T23:23:50.545Z,1.63
2018-10-01T23:26:18.618Z,1.80
2018-10-01T23:28:46.705Z,1.73
2018-10-01T23:31:14.786Z,1.83
2018-10-01T23:33:42.861Z,1.97
2018-10-01T23:36:10.949Z,1.70
2018-10-01T23:38:39.044Z,1.77
2018-10-01T23:41:07.830Z,2.30
2018-10-01T23:43:35.938Z,1.87
2018-10-01T23:46:04.061Z,2.20
2018-10-01T23:48:32.226Z,2.00
2018-10-01T23:51:00.359Z,1.97
2018-10-01T23:53:28.433Z,1.60
2018-10-01T23:55:56.517Z,1.90
2018-10-01T23:58:24.599Z,2.53
